Time;durP1;ratioP1;P1;durP2;ratioP2;P2;SDS_P1;SDS_P2;PMS_P1;PMS_P2;Temp;Humidity;BMP_temperature;BMP_pressure;BME280_temperature;BME280_humidity;BME280_pressure;Samples;Min_cycle;Max_cycle;Signal;HPM_P1;HPM_P2
2023/08/17 00:00:13;;;;;;;4.27;0.90;;;17.80;99.90;;;;;;5015167;28;20483;-71
2023/08/17 00:02:42;;;;;;;4.82;0.93;;;17.80;99.90;;;;;;5042659;28;20415;-71
2023/08/17 00:05:08;;;;;;;3.50;0.95;;;17.80;99.90;;;;;;5030782;28;20451;-72
2023/08/17 00:07:34;;;;;;;3.45;0.80;;;17.70;99.90;;;;;;5031262;28;20415;-72
2023/08/17 00:10:00;;;;;;;3.17;0.80;;;17.60;99.90;;;;;;5033409;28;20415;-72
2023/08/17 00:12:25;;;;;;;5.22;0.98;;;17.70;99.90;;;;;;5032518;28;20832;-71
2023/08/17 00:14:52;;;;;;;3.37;0.80;;;17.60;99.90;;;;;;5032813;28;20453;-72
2023/08/17 00:17:18;;;;;;;4.50;0.80;;;17.60;99.90;;;;;;5032109;28;20403;-71
2023/08/17 00:19:44;;;;;;;5.00;0.77;;;17.60;99.90;;;;;;5032559;28;20518;-72
2023/08/17 00:22:09;;;;;;;4.40;0.63;;;17.60;99.90;;;;;;5031541;28;20841;-71
2023/08/17 00:24:35;;;;;;;4.80;0.80;;;17.60;99.90;;;;;;5030670;28;20948;-71
2023/08/17 00:27:00;;;;;;;4.00;0.70;;;17.60;99.90;;;;;;5030202;28;20423;-72
2023/08/17 00:29:26;;;;;;;3.90;0.80;;;17.60;99.90;;;;;;5027879;28;20758;-72
2023/08/17 00:31:52;;;;;;;4.75;0.90;;;17.60;99.90;;;;;;5037032;28;20405;-72
2023/08/17 00:34:18;;;;;;;5.17;1.00;;;17.60;99.90;;;;;;5032812;28;20425;-72
2023/08/17 00:36:44;;;;;;;5.75;0.80;;;17.60;99.90;;;;;;5036521;28;20732;-72
2023/08/17 00:39:10;;;;;;;6.53;1.30;;;17.60;99.90;;;;;;5032774;28;20430;-72
2023/08/17 00:41:36;;;;;;;3.20;0.90;;;17.60;99.90;;;;;;5028286;28;20403;-72
2023/08/17 00:44:02;;;;;;;3.00;1.00;;;17.60;99.90;;;;;;5042845;28;21136;-72
2023/08/17 00:46:28;;;;;;;4.25;0.88;;;17.60;99.90;;;;;;5046785;28;20485;-72
2023/08/17 00:48:55;;;;;;;5.13;1.17;;;17.60;99.90;;;;;;5047125;28;21162;-72
2023/08/17 00:51:23;;;;;;;4.05;1.02;;;17.50;99.90;;;;;;5046447;28;20413;-72
2023/08/17 00:53:54;;;;;;;4.18;1.15;;;17.50;99.90;;;;;;5047423;28;20776;-71
2023/08/17 00:56:21;;;;;;;4.63;1.25;;;17.50;99.90;;;;;;5037866;28;20403;-72
2023/08/17 00:58:46;;;;;;;5.72;1.48;;;17.50;99.90;;;;;;5027129;28;20419;-72
2023/08/17 01:01:12;;;;;;;6.45;1.27;;;17.50;99.90;;;;;;5028199;28;20409;-71
2023/08/17 01:03:43;;;;;;;4.47;1.07;;;17.50;99.90;;;;;;5028360;28;20431;-72
2023/08/17 01:06:09;;;;;;;5.80;1.30;;;17.50;99.90;;;;;;5027928;28;20411;-72
2023/08/17 01:08:36;;;;;;;4.63;1.27;;;17.50;99.90;;;;;;5015983;28;20440;-72
2023/08/17 01:11:12;;;;;;;3.80;1.10;;;17.50;99.90;;;;;;5031532;28;20415;-72
2023/08/17 01:13:53;;;;;;;4.05;1.00;;;17.40;99.90;;;;;;5035133;28;21115;-72
2023/08/17 01:16:26;;;;;;;4.72;0.93;;;17.40;99.90;;;;;;5017935;28;20414;-70
2023/08/17 01:18:52;;;;;;;6.28;1.30;;;17.40;99.90;;;;;;5032678;28;20430;-70
2023/08/17 01:21:23;;;;;;;5.88;1.30;;;17.40;99.90;;;;;;5036639;28;20950;-71
2023/08/17 01:23:49;;;;;;;4.10;1.08;;;17.40;99.90;;;;;;5033709;28;20457;-71
2023/08/17 01:26:15;;;;;;;6.13;1.25;;;17.30;99.90;;;;;;5034947;28;20496;-71
2023/08/17 01:28:50;;;;;;;4.70;1.02;;;17.30;99.90;;;;;;5031477;28;20454;-71
2023/08/17 01:31:31;;;;;;;5.85;1.20;;;17.30;99.90;;;;;;5035286;28;20473;-71
2023/08/17 01:34:07;;;;;;;6.78;1.10;;;17.30;99.90;;;;;;5031478;28;20454;-71
2023/08/17 01:36:38;;;;;;;5.07;1.40;;;17.20;99.90;;;;;;5030950;28;20477;-72
2023/08/17 01:39:04;;;;;;;5.40;1.05;;;17.20;1.00;;;;;;5034622;28;20474;-71
2023/08/17 01:41:31;;;;;;;4.25;1.05;;;17.20;1.00;;;;;;5033946;28;21017;-71
2023/08/17 01:43:59;;;;;;;6.22;1.38;;;17.10;1.00;;;;;;4998310;28;20857;-71
2023/08/17 01:46:31;;;;;;;4.25;1.20;;;17.10;1.00;;;;;;5035728;28;20405;-71
2023/08/17 01:48:57;;;;;;;5.05;1.00;;;17.10;1.00;;;;;;5032279;28;20446;-71
2023/08/17 01:51:23;;;;;;;4.07;1.20;;;17.10;1.00;;;;;;5037243;28;20400;-71
2023/08/17 01:53:48;;;;;;;4.40;1.15;;;17.10;1.00;;;;;;5033788;28;20410;-71
2023/08/17 01:56:14;;;;;;;3.83;1.03;;;17.10;1.00;;;;;;5034432;28;20959;-71
2023/08/17 01:58:40;;;;;;;4.68;0.95;;;17.10;1.00;;;;;;5027213;28;20407;-71
2023/08/17 02:01:05;;;;;;;4.00;1.00;;;17.10;1.00;;;;;;5038016;28;20406;-71
2023/08/17 02:03:31;;;;;;;4.80;1.13;;;17.10;1.00;;;;;;5029062;28;20437;-71
2023/08/17 02:05:58;;;;;;;5.77;1.47;;;17.00;1.00;;;;;;5039321;28;20398;-71
2023/08/17 02:08:23;;;;;;;5.80;1.20;;;17.00;1.00;;;;;;5036930;28;20498;-71
2023/08/17 02:10:49;;;;;;;5.22;1.42;;;17.00;1.00;;;;;;5031848;28;20476;-71
2023/08/17 02:13:15;;;;;;;4.10;1.00;;;16.90;1.00;;;;;;5036913;28;20411;-71
2023/08/17 02:15:41;;;;;;;4.97;1.27;;;16.90;1.00;;;;;;5032279;28;20858;-71
2023/08/17 02:18:08;;;;;;;4.73;1.27;;;16.90;1.00;;;;;;5031787;28;20415;-71
2023/08/17 02:20:33;;;;;;;8.27;1.33;;;16.90;1.00;;;;;;5034661;28;20401;-71
2023/08/17 02:22:59;;;;;;;4.37;1.00;;;16.90;1.00;;;;;;4997262;28;20481;-71
2023/08/17 02:25:25;;;;;;;3.60;1.13;;;16.90;1.00;;;;;;5033200;28;20453;-71
2023/08/17 02:27:50;;;;;;;4.10;1.23;;;16.90;1.00;;;;;;5035816;28;20413;-70
2023/08/17 02:30:16;;;;;;;4.57;1.00;;;16.90;1.00;;;;;;5039849;28;20972;-72
2023/08/17 02:32:42;;;;;;;4.10;1.00;;;16.90;1.00;;;;;;5032505;28;20457;-71
2023/08/17 02:35:08;;;;;;;5.00;0.90;;;16.90;1.00;;;;;;5040799;28;20767;-71
2023/08/17 02:37:33;;;;;;;5.43;1.20;;;17.00;1.00;;;;;;5037472;28;21012;-71
2023/08/17 02:39:59;;;;;;;3.83;0.98;;;16.90;1.00;;;;;;5037032;28;20498;-71
2023/08/17 02:42:24;;;;;;;4.27;1.03;;;17.00;1.00;;;;;;5030616;28;20419;-72
2023/08/17 02:44:50;;;;;;;7.25;0.95;;;17.00;1.00;;;;;;5041021;28;20985;-72
2023/08/17 02:47:16;;;;;;;4.77;1.07;;;17.00;1.00;;;;;;5040378;28;20560;-71
2023/08/17 02:49:41;;;;;;;5.32;0.95;;;17.00;1.00;;;;;;5038303;28;20846;-72
2023/08/17 02:52:07;;;;;;;5.97;1.13;;;17.00;1.00;;;;;;5030817;28;20410;-72
2023/08/17 02:54:33;;;;;;;4.65;0.85;;;17.00;1.00;;;;;;5038825;28;20397;-72
2023/08/17 02:56:59;;;;;;;5.33;0.93;;;17.00;1.00;;;;;;5031142;28;20403;-71
2023/08/17 02:59:25;;;;;;;3.85;1.20;;;17.00;1.00;;;;;;5038833;28;20458;-72
2023/08/17 03:01:51;;;;;;;5.43;1.03;;;17.00;1.00;;;;;;5037842;28;20413;-71
2023/08/17 03:04:16;;;;;;;4.25;0.90;;;17.00;1.00;;;;;;5041794;28;20420;-71
2023/08/17 03:06:42;;;;;;;3.90;0.90;;;17.00;1.00;;;;;;5025931;28;20435;-71
2023/08/17 03:09:07;;;;;;;5.97;1.00;;;17.00;1.00;;;;;;5042391;28;20409;-71
2023/08/17 03:11:33;;;;;;;4.22;0.93;;;17.00;1.00;;;;;;5025892;28;20413;-72
2023/08/17 03:14:02;;;;;;;4.30;0.80;;;17.00;1.00;;;;;;5034148;28;20427;-71
2023/08/17 03:16:29;;;;;;;7.00;1.38;;;16.90;1.00;;;;;;5039378;28;20411;-71
2023/08/17 03:18:55;;;;;;;4.75;0.82;;;16.90;1.00;;;;;;5037146;28;20500;-71
2023/08/17 03:21:21;;;;;;;5.70;1.05;;;16.90;1.00;;;;;;5034917;28;20490;-71
2023/08/17 03:23:47;;;;;;;5.83;1.10;;;16.90;1.00;;;;;;5036663;28;20437;-71
2023/08/17 03:26:12;;;;;;;5.10;1.50;;;16.80;1.00;;;;;;5034973;28;20403;-72
2023/08/17 03:28:38;;;;;;;6.97;1.20;;;16.80;1.00;;;;;;5038073;28;20405;-72
2023/08/17 03:31:03;;;;;;;5.95;1.10;;;16.80;1.00;;;;;;5018408;28;20412;-72
2023/08/17 03:33:29;;;;;;;4.77;1.07;;;16.80;1.00;;;;;;5020350;28;20420;-72
2023/08/17 03:35:55;;;;;;;6.07;1.40;;;16.80;1.00;;;;;;5036786;28;20421;-72
2023/08/17 03:38:20;;;;;;;5.37;1.00;;;16.80;1.00;;;;;;5040058;28;20440;-71
2023/08/17 03:40:49;;;;;;;3.43;0.90;;;16.80;1.00;;;;;;5039751;28;20457;-71
2023/08/17 03:43:14;;;;;;;3.45;1.13;;;16.70;1.00;;;;;;5040039;28;20433;-71
2023/08/17 03:45:44;;;;;;;3.43;0.87;;;16.70;1.00;;;;;;5038748;28;20422;-71
2023/08/17 03:48:10;;;;;;;3.90;1.10;;;16.80;1.00;;;;;;5021856;28;20441;-71
2023/08/17 03:50:35;;;;;;;6.75;1.17;;;16.80;1.00;;;;;;5038280;28;20869;-72
2023/08/17 03:53:01;;;;;;;3.67;0.98;;;16.80;1.00;;;;;;5040466;28;20436;-71
2023/08/17 03:55:27;;;;;;;4.60;1.13;;;16.80;1.00;;;;;;5039552;28;20415;-71
2023/08/17 03:57:52;;;;;;;5.53;1.08;;;16.80;1.00;;;;;;5040121;28;20454;-71
2023/08/17 04:00:18;;;;;;;4.78;1.10;;;16.80;1.00;;;;;;5040149;28;20408;-71
2023/08/17 04:02:44;;;;;;;5.10;1.20;;;16.70;1.00;;;;;;5040126;28;20420;-71
2023/08/17 04:05:09;;;;;;;5.40;1.13;;;16.70;1.00;;;;;;5039683;28;20445;-71
2023/08/17 04:07:36;;;;;;;5.47;1.13;;;16.70;1.00;;;;;;5040927;28;20737;-71
2023/08/17 04:10:05;;;;;;;4.33;0.97;;;16.70;1.00;;;;;;5039805;28;20525;-71
2023/08/17 04:12:31;;;;;;;5.38;0.90;;;16.60;1.00;;;;;;5042071;28;20462;-71
2023/08/17 04:14:57;;;;;;;6.13;1.25;;;16.60;1.00;;;;;;5033879;28;20906;-71
2023/08/17 04:17:22;;;;;;;3.13;0.90;;;16.60;1.00;;;;;;5034085;28;20887;-71
2023/08/17 04:19:48;;;;;;;3.75;1.00;;;16.60;1.00;;;;;;5033707;28;20510;-71
2023/08/17 04:22:13;;;;;;;4.80;1.17;;;16.60;1.00;;;;;;5020013;28;20401;-71
2023/08/17 04:24:39;;;;;;;6.83;1.27;;;16.50;1.00;;;;;;5031981;28;20478;-72
2023/08/17 04:27:05;;;;;;;3.25;1.10;;;16.50;1.00;;;;;;5037429;28;20809;-71
2023/08/17 04:29:31;;;;;;;3.93;1.23;;;16.50;1.00;;;;;;5035254;28;20907;-72
2023/08/17 04:31:57;;;;;;;4.28;1.35;;;16.50;1.00;;;;;;5038978;28;20429;-71
2023/08/17 04:34:24;;;;;;;3.47;1.08;;;16.50;1.00;;;;;;5035284;28;20766;-71
2023/08/17 04:36:49;;;;;;;3.47;1.02;;;16.50;1.00;;;;;;5038443;28;20494;-71
2023/08/17 04:39:15;;;;;;;4.90;1.13;;;16.40;1.00;;;;;;5036734;28;20940;-71
2023/08/17 04:41:41;;;;;;;5.63;1.40;;;16.40;1.00;;;;;;5021271;28;20421;-71
2023/08/17 04:44:09;;;;;;;5.07;1.00;;;16.50;1.00;;;;;;5037261;28;20431;-71
2023/08/17 04:46:35;;;;;;;2.88;1.08;;;16.40;1.00;;;;;;5034757;28;20414;-71
2023/08/17 04:49:01;;;;;;;4.75;1.20;;;16.40;1.00;;;;;;5034801;28;20407;-71
2023/08/17 04:51:27;;;;;;;6.13;1.40;;;16.40;1.00;;;;;;5039538;28;20405;-71
2023/08/17 04:53:52;;;;;;;5.90;1.52;;;16.40;1.00;;;;;;5020668;28;20490;-71
2023/08/17 04:56:18;;;;;;;4.77;1.17;;;16.40;1.00;;;;;;5022788;28;20432;-71
2023/08/17 04:58:44;;;;;;;5.03;1.15;;;16.40;1.00;;;;;;5038391;28;20927;-71
2023/08/17 05:01:10;;;;;;;3.60;1.00;;;16.40;1.00;;;;;;5040168;28;20496;-71
2023/08/17 05:03:36;;;;;;;6.68;1.63;;;16.40;1.00;;;;;;5037907;28;20446;-71
2023/08/17 05:06:01;;;;;;;4.47;1.30;;;16.40;1.00;;;;;;5040991;28;20870;-71
2023/08/17 05:08:27;;;;;;;5.07;1.30;;;16.40;1.00;;;;;;5037107;28;20454;-71
2023/08/17 05:10:53;;;;;;;6.28;1.30;;;16.30;1.00;;;;;;5041492;28;20484;-71
2023/08/17 05:13:19;;;;;;;4.97;1.30;;;16.30;1.00;;;;;;5039149;28;20909;-71
2023/08/17 05:15:45;;;;;;;9.90;1.53;;;16.30;1.00;;;;;;5040752;28;20463;-71
2023/08/17 05:18:10;;;;;;;4.80;1.30;;;16.30;1.00;;;;;;5032062;28;20442;-71
2023/08/17 05:20:36;;;;;;;5.47;1.40;;;16.30;1.00;;;;;;5036413;28;20463;-71
2023/08/17 05:23:02;;;;;;;4.55;1.40;;;16.30;1.00;;;;;;5033714;28;20431;-71
2023/08/17 05:25:29;;;;;;;5.85;1.25;;;16.30;1.00;;;;;;5036077;28;20892;-71
2023/08/17 05:27:55;;;;;;;5.73;1.47;;;16.30;1.00;;;;;;5032800;28;20414;-71
2023/08/17 05:30:20;;;;;;;6.30;1.55;;;16.40;1.00;;;;;;5035624;28;20417;-71
2023/08/17 05:32:46;;;;;;;4.38;1.42;;;16.40;1.00;;;;;;5033314;28;20496;-71
2023/08/17 05:35:12;;;;;;;7.43;1.30;;;16.40;1.00;;;;;;5036869;28;20447;-71
2023/08/17 05:37:37;;;;;;;5.80;1.80;;;16.50;1.00;;;;;;5034178;28;20465;-71
2023/08/17 05:40:04;;;;;;;4.73;1.23;;;16.60;1.00;;;;;;5036184;28;20828;-71
2023/08/17 05:42:30;;;;;;;4.85;1.23;;;16.60;1.00;;;;;;5034565;28;20450;-71
2023/08/17 05:44:56;;;;;;;4.77;1.20;;;16.70;1.00;;;;;;5036615;28;20457;-71
2023/08/17 05:47:21;;;;;;;6.45;1.35;;;16.70;1.00;;;;;;5034800;28;20406;-71
2023/08/17 05:49:47;;;;;;;6.10;1.40;;;16.70;1.00;;;;;;5036982;28;20423;-72
2023/08/17 05:52:13;;;;;;;5.68;1.85;;;16.70;1.00;;;;;;5030045;28;20446;-71
2023/08/17 05:54:39;;;;;;;6.22;1.50;;;16.80;1.00;;;;;;5036718;28;20477;-71
2023/08/17 05:57:04;;;;;;;4.10;1.30;;;16.80;1.00;;;;;;5035270;28;20514;-71
2023/08/17 05:59:30;;;;;;;4.32;1.35;;;16.80;1.00;;;;;;5018946;28;20412;-71
2023/08/17 06:01:56;;;;;;;4.87;1.10;;;16.90;1.00;;;;;;5035037;28;20988;-71
2023/08/17 06:04:21;;;;;;;4.43;1.10;;;16.90;1.00;;;;;;5035963;28;20433;-71
2023/08/17 06:06:47;;;;;;;6.47;1.20;;;16.90;1.00;;;;;;5035315;28;20411;-71
2023/08/17 06:09:14;;;;;;;3.42;1.20;;;17.00;1.00;;;;;;5036513;28;20450;-71
2023/08/17 06:11:39;;;;;;;7.07;1.50;;;17.00;1.00;;;;;;5034329;28;20410;-71
2023/08/17 06:14:05;;;;;;;5.17;1.30;;;17.10;1.00;;;;;;5036131;28;20394;-71
2023/08/17 06:16:31;;;;;;;4.73;1.30;;;17.10;1.00;;;;;;5033201;28;20712;-72
2023/08/17 06:18:57;;;;;;;4.72;1.20;;;17.10;1.00;;;;;;5035380;28;20402;-71
2023/08/17 06:21:22;;;;;;;7.80;1.37;;;17.20;1.00;;;;;;5031509;28;20415;-71
2023/08/17 06:23:48;;;;;;;5.38;1.17;;;17.20;1.00;;;;;;5011981;28;20437;-72
2023/08/17 06:26:13;;;;;;;6.67;1.37;;;17.20;1.00;;;;;;5031986;28;20399;-72
2023/08/17 06:28:39;;;;;;;4.65;0.88;;;17.20;1.00;;;;;;5034574;28;20450;-72
2023/08/17 06:31:05;;;;;;;3.97;0.93;;;17.30;1.00;;;;;;5032234;28;20812;-72
2023/08/17 06:33:30;;;;;;;4.27;0.87;;;17.30;1.00;;;;;;5016226;28;20405;-72
2023/08/17 06:35:56;;;;;;;4.57;0.90;;;17.30;1.00;;;;;;5034246;28;20830;-72
2023/08/17 06:38:21;;;;;;;4.17;1.10;;;17.30;1.00;;;;;;5018224;28;20475;-72
2023/08/17 06:40:47;;;;;;;4.97;0.88;;;17.30;1.00;;;;;;5035011;28;20766;-72
2023/08/17 06:43:13;;;;;;;3.17;0.80;;;17.20;1.00;;;;;;5036562;28;20947;-72
2023/08/17 06:45:39;;;;;;;5.65;0.73;;;17.20;1.00;;;;;;5034259;28;20437;-71
2023/08/17 06:48:05;;;;;;;3.25;0.75;;;17.20;1.00;;;;;;5035588;28;20405;-71
2023/08/17 06:50:30;;;;;;;3.27;0.50;;;17.20;1.00;;;;;;5036691;28;20402;-72
2023/08/17 06:52:56;;;;;;;3.72;0.60;;;17.30;1.00;;;;;;5019450;28;20496;-72
2023/08/17 06:55:22;;;;;;;3.90;0.63;;;17.30;1.00;;;;;;5038586;28;20893;-72
2023/08/17 06:57:51;;;;;;;4.28;0.50;;;17.30;1.00;;;;;;5037127;28;20413;-72
2023/08/17 07:00:20;;;;;;;4.95;0.80;;;17.40;1.00;;;;;;5037072;28;20410;-72
2023/08/17 07:02:47;;;;;;;2.80;0.50;;;17.40;1.00;;;;;;5036053;28;20515;-72
2023/08/17 07:05:18;;;;;;;4.63;0.90;;;17.40;1.00;;;;;;5035943;28;21006;-72
2023/08/17 07:07:44;;;;;;;6.18;0.90;;;17.50;1.00;;;;;;5039118;28;20417;-72
2023/08/17 07:10:10;;;;;;;2.97;0.60;;;17.50;1.00;;;;;;5035840;28;20419;-72
2023/08/17 07:12:39;;;;;;;4.28;0.70;;;17.60;1.00;;;;;;5044989;28;20393;-72
2023/08/17 07:15:06;;;;;;;4.22;0.85;;;17.60;1.00;;;;;;5039663;28;20438;-72
2023/08/17 07:17:33;;;;;;;3.75;0.60;;;17.60;1.00;;;;;;5037364;28;20401;-72
2023/08/17 07:19:59;;;;;;;3.35;0.60;;;17.70;1.00;;;;;;5034196;28;20411;-72
2023/08/17 07:22:25;;;;;;;5.00;0.80;;;17.70;1.00;;;;;;5037851;28;20405;-72
2023/08/17 07:24:50;;;;;;;3.45;0.50;;;17.80;1.00;;;;;;5034030;28;20423;-71
2023/08/17 07:27:16;;;;;;;3.08;0.52;;;17.80;1.00;;;;;;5037538;28;20498;-72
2023/08/17 07:29:41;;;;;;;5.27;0.60;;;17.90;1.00;;;;;;5034396;28;20920;-72
2023/08/17 07:32:07;;;;;;;5.50;0.50;;;17.90;1.00;;;;;;5037804;28;20730;-72
2023/08/17 07:34:33;;;;;;;3.97;0.63;;;18.00;1.00;;;;;;5017084;28;21320;-72
2023/08/17 07:36:58;;;;;;;3.90;0.43;;;18.10;1.00;;;;;;5039288;28;20409;-72
2023/08/17 07:39:25;;;;;;;4.20;0.70;;;18.10;1.00;;;;;;5034775;28;20505;-72
2023/08/17 07:41:50;;;;;;;2.95;0.45;;;18.10;1.00;;;;;;5039922;28;20539;-72
2023/08/17 07:44:16;;;;;;;3.33;0.60;;;18.20;1.00;;;;;;5029906;28;20521;-72
2023/08/17 07:46:41;;;;;;;4.33;0.83;;;18.20;1.00;;;;;;5039498;28;20401;-72
2023/08/17 07:49:07;;;;;;;4.90;0.40;;;18.20;1.00;;;;;;5035028;28;20403;-71
2023/08/17 07:51:33;;;;;;;2.88;0.70;;;18.30;99.90;;;;;;5038732;28;20779;-71
2023/08/17 07:54:01;;;;;;;3.28;0.68;;;18.30;99.90;;;;;;5034482;28;20406;-72
2023/08/17 07:56:27;;;;;;;2.55;0.40;;;18.30;99.90;;;;;;5030839;28;20444;-72
2023/08/17 07:58:57;;;;;;;2.10;0.60;;;18.30;99.90;;;;;;5034352;28;20427;-73
2023/08/17 08:01:22;;;;;;;3.50;0.73;;;18.30;99.90;;;;;;5041016;28;20416;-72
2023/08/17 08:03:48;;;;;;;4.40;0.80;;;18.40;99.90;;;;;;5035042;28;20511;-72
2023/08/17 08:06:13;;;;;;;4.10;0.50;;;18.30;99.90;;;;;;5028602;28;20839;-73
2023/08/17 08:08:42;;;;;;;4.03;0.88;;;18.30;99.90;;;;;;5020430;28;20586;-72
2023/08/17 08:11:09;;;;;;;2.90;0.50;;;18.20;99.90;;;;;;5032454;28;20417;-72
2023/08/17 08:13:35;;;;;;;3.13;0.60;;;18.20;99.90;;;;;;5040488;28;20771;-72
2023/08/17 08:16:00;;;;;;;5.87;0.73;;;18.20;99.90;;;;;;5035472;28;20407;-72
2023/08/17 08:18:26;;;;;;;4.00;0.60;;;18.10;99.90;;;;;;5039246;28;20897;-72
2023/08/17 08:20:52;;;;;;;3.00;0.43;;;18.10;99.90;;;;;;5028586;28;20897;-72
2023/08/17 08:23:17;;;;;;;4.50;0.63;;;18.00;99.90;;;;;;5028446;28;20598;-72
2023/08/17 08:25:43;;;;;;;4.10;0.60;;;18.00;99.90;;;;;;5028556;28;20414;-72
2023/08/17 08:28:09;;;;;;;2.72;0.50;;;17.90;99.90;;;;;;5028946;28;20422;-72
2023/08/17 08:30:35;;;;;;;4.43;0.80;;;17.90;99.90;;;;;;5028772;28;20407;-72
2023/08/17 08:33:02;;;;;;;3.83;0.70;;;17.90;99.90;;;;;;5028660;28;20957;-72
2023/08/17 08:35:28;;;;;;;3.67;0.50;;;17.90;99.90;;;;;;5028687;28;20423;-72
2023/08/17 08:37:55;;;;;;;3.42;0.57;;;17.80;99.90;;;;;;5030910;28;20438;-72
2023/08/17 08:40:30;;;;;;;8.13;0.80;;;17.80;99.90;;;;;;5029071;28;20407;-72
2023/08/17 08:42:57;;;;;;;4.75;0.50;;;17.80;99.90;;;;;;5023371;28;20406;-72
2023/08/17 08:45:23;;;;;;;2.05;0.60;;;17.80;99.90;;;;;;5028508;28;20404;-72
2023/08/17 08:47:50;;;;;;;2.70;0.50;;;17.80;99.90;;;;;;5027956;28;20419;-72
2023/08/17 08:50:20;;;;;;;4.10;0.60;;;17.80;99.90;;;;;;5029070;28;20457;-72
2023/08/17 08:52:59;;;;;;;2.20;0.47;;;17.90;99.90;;;;;;5030428;28;20403;-72
2023/08/17 08:55:30;;;;;;;3.00;0.60;;;17.90;99.90;;;;;;5029402;28;21320;-72
2023/08/17 08:57:56;;;;;;;2.67;0.50;;;17.90;99.90;;;;;;5040641;28;20443;-73
2023/08/17 09:00:22;;;;;;;2.10;0.75;;;17.90;99.90;;;;;;5030493;28;20403;-73
2023/08/17 09:02:49;;;;;;;4.70;0.65;;;18.00;99.90;;;;;;5031479;28;20433;-72
2023/08/17 09:05:16;;;;;;;3.08;0.60;;;18.10;99.90;;;;;;5030530;28;20423;-72
2023/08/17 09:07:42;;;;;;;4.18;0.50;;;18.10;99.90;;;;;;5031468;28;20923;-72
2023/08/17 09:10:09;;;;;;;6.45;0.85;;;18.20;99.90;;;;;;5031743;28;20415;-72
2023/08/17 09:12:35;;;;;;;3.80;0.55;;;18.30;99.90;;;;;;5031576;28;20412;-72
2023/08/17 09:15:01;;;;;;;5.40;0.60;;;18.50;99.90;;;;;;5029738;28;20411;-72
2023/08/17 09:17:28;;;;;;;2.33;0.50;;;18.70;99.90;;;;;;5028884;28;20438;-73
2023/08/17 09:19:54;;;;;;;4.67;0.70;;;18.90;99.90;;;;;;5028723;28;20406;-72
2023/08/17 09:22:40;;;;;;;2.47;0.68;;;19.10;99.90;;;;;;5027199;28;20409;-72
2023/08/17 09:25:06;;;;;;;3.00;0.70;;;19.30;99.90;;;;;;5025881;28;20437;-72
2023/08/17 09:27:32;;;;;;;3.20;0.68;;;19.50;99.90;;;;;;5029932;28;20972;-72
2023/08/17 09:30:06;;;;;;;4.40;1.02;;;19.60;99.90;;;;;;5033782;28;20553;-73
2023/08/17 09:32:33;;;;;;;2.30;0.50;;;19.80;99.90;;;;;;5027731;28;20936;-72
2023/08/17 09:35:06;;;;;;;3.00;0.60;;;20.00;99.90;;;;;;5033026;28;20413;-72
2023/08/17 09:37:33;;;;;;;2.88;0.50;;;20.30;99.90;;;;;;5032172;28;20449;-73
2023/08/17 09:39:59;;;;;;;3.85;0.60;;;20.40;46.30;;;;;;5027035;28;20837;-72
2023/08/17 09:42:25;;;;;;;4.30;0.77;;;20.60;34.40;;;;;;5030086;28;20473;-71
2023/08/17 09:44:52;;;;;;;2.20;0.50;;;20.80;99.90;;;;;;5027876;28;20947;-71
2023/08/17 09:47:21;;;;;;;2.70;0.50;;;20.90;99.90;;;;;;5013993;28;20457;-72
2023/08/17 09:49:53;;;;;;;3.78;0.52;;;20.90;1.00;;;;;;5046006;28;20409;-71
2023/08/17 09:52:23;;;;;;;4.20;0.60;;;20.80;1.00;;;;;;5034545;28;20399;-72
2023/08/17 09:54:49;;;;;;;3.72;0.60;;;20.60;99.90;;;;;;5027533;28;20414;-71
2023/08/17 09:57:16;;;;;;;3.30;0.57;;;20.50;99.90;;;;;;5027879;28;21142;-72
2023/08/17 09:59:41;;;;;;;3.63;0.80;;;20.30;99.90;;;;;;5027687;28;20438;-71
2023/08/17 10:02:19;;;;;;;4.20;0.75;;;20.20;99.90;;;;;;5017696;28;20496;-70
2023/08/17 10:04:50;;;;;;;2.58;0.60;;;20.40;99.90;;;;;;5029164;28;20435;-71
2023/08/17 10:07:20;;;;;;;4.80;0.75;;;20.50;99.90;;;;;;5031716;28;20502;-71
2023/08/17 10:09:53;;;;;;;3.08;0.65;;;20.70;54.00;;;;;;5031980;28;20438;-71
2023/08/17 10:12:19;;;;;;;3.05;0.70;;;20.70;99.90;;;;;;5028192;28;20407;-71
2023/08/17 10:14:52;;;;;;;3.78;0.80;;;20.70;99.90;;;;;;5041098;28;20407;-71
2023/08/17 10:17:25;;;;;;;2.47;0.43;;;20.70;99.90;;;;;;5010761;28;20460;-71
2023/08/17 10:19:54;;;;;;;3.95;0.50;;;20.70;1.00;;;;;;5027755;28;20897;-71
2023/08/17 10:22:51;;;;;;;3.58;0.47;;;20.60;1.00;;;;;;5009605;28;20411;-71
2023/08/17 10:25:18;;;;;;;3.63;0.70;;;20.60;99.90;;;;;;5019975;28;20486;-71
2023/08/17 10:27:45;;;;;;;3.95;0.70;;;20.50;1.00;;;;;;5028906;28;20483;-71
2023/08/17 10:30:11;;;;;;;3.47;0.70;;;20.40;1.00;;;;;;5027255;28;20399;-71
2023/08/17 10:32:38;;;;;;;4.05;0.90;;;20.40;99.90;;;;;;4994520;28;20422;-71
2023/08/17 10:35:05;;;;;;;2.83;0.70;;;20.40;99.90;;;;;;5029253;28;20399;-72
2023/08/17 10:37:32;;;;;;;6.13;1.00;;;20.50;33.70;;;;;;5029189;28;20398;-71
2023/08/17 10:39:57;;;;;;;4.67;0.80;;;20.70;99.90;;;;;;5038539;28;20408;-71
2023/08/17 10:42:36;;;;;;;4.45;0.98;;;20.90;99.90;;;;;;5029767;28;20410;-71
2023/08/17 10:45:21;;;;;;;3.92;0.65;;;21.10;1.00;;;;;;5028160;28;20488;-71
2023/08/17 10:47:47;;;;;;;4.63;0.68;;;21.50;99.90;;;;;;5031896;28;20492;-71
2023/08/17 10:50:23;;;;;;;2.97;0.60;;;22.10;99.90;;;;;;5033313;28;20414;-71
2023/08/17 10:52:50;;;;;;;3.88;0.60;;;22.90;99.90;;;;;;5032604;28;20936;-71
2023/08/17 10:55:18;;;;;;;3.97;0.70;;;23.60;1.00;;;;;;5033045;28;20409;-71
2023/08/17 10:57:44;;;;;;;3.50;0.50;;;24.00;99.90;;;;;;5032307;28;20410;-71
2023/08/17 11:00:26;;;;;;;3.72;0.60;;;24.40;1.00;;;;;;5035221;28;20452;-72
2023/08/17 11:03:01;;;;;;;4.78;0.65;;;24.70;99.90;;;;;;5032627;28;20507;-72
2023/08/17 11:05:43;;;;;;;3.85;0.80;;;25.10;1.00;;;;;;5031813;28;20418;-72
2023/08/17 11:08:21;;;;;;;3.77;0.70;;;25.20;99.90;;;;;;5035157;28;20500;-72
2023/08/17 11:10:58;;;;;;;3.75;0.90;;;25.40;99.90;;;;;;5032370;28;20422;-72
2023/08/17 11:13:26;;;;;;;2.30;0.60;;;25.50;99.90;;;;;;5034285;28;20411;-72
2023/08/17 11:15:52;;;;;;;5.13;0.60;;;25.40;41.20;;;;;;5030939;28;20764;-72
2023/08/17 11:18:18;;;;;;;2.67;0.50;;;25.50;71.30;;;;;;5032859;28;20482;-72
2023/08/17 11:20:44;;;;;;;2.47;0.65;;;25.50;1.00;;;;;;5032622;28;20438;-72
2023/08/17 11:23:10;;;;;;;4.20;0.73;;;25.50;24.20;;;;;;5032504;28;20461;-72
2023/08/17 11:25:37;;;;;;;3.88;0.70;;;25.70;1.00;;;;;;5033026;28;20477;-72
2023/08/17 11:28:05;;;;;;;4.28;0.63;;;25.80;1.00;;;;;;5035067;28;20472;-71
2023/08/17 11:30:33;;;;;;;3.40;0.60;;;25.40;1.00;;;;;;5032907;28;20404;-71
2023/08/17 11:32:59;;;;;;;4.53;0.70;;;25.40;1.00;;;;;;5033574;28;20407;-71
2023/08/17 11:35:25;;;;;;;4.40;0.90;;;25.40;1.00;;;;;;5033100;28;20398;-71
2023/08/17 11:37:51;;;;;;;2.97;0.65;;;25.50;1.00;;;;;;5031859;28;20827;-71
2023/08/17 11:40:17;;;;;;;3.57;0.60;;;25.50;1.00;;;;;;5038066;28;20411;-71
2023/08/17 11:42:45;;;;;;;4.53;0.70;;;25.30;1.00;;;;;;5043658;28;20827;-71
2023/08/17 11:45:11;;;;;;;3.53;0.70;;;25.20;1.00;;;;;;5043871;28;20426;-71
2023/08/17 11:47:42;;;;;;;3.70;0.60;;;24.90;1.00;;;;;;5042675;28;20925;-71
2023/08/17 11:50:11;;;;;;;3.03;0.50;;;24.60;1.00;;;;;;5040754;28;20405;-71
2023/08/17 11:52:38;;;;;;;3.75;0.60;;;24.80;1.00;;;;;;5045115;28;20397;-71
2023/08/17 11:55:05;;;;;;;3.10;0.57;;;25.10;1.00;;;;;;5038865;28;20410;-71
2023/08/17 11:57:32;;;;;;;3.75;0.80;;;25.20;1.00;;;;;;5030566;28;20415;-71
2023/08/17 11:59:59;;;;;;;3.43;0.63;;;25.10;1.00;;;;;;5041108;28;20490;-71
2023/08/17 12:02:26;;;;;;;4.85;0.90;;;24.90;1.00;;;;;;5026680;28;20410;-71
2023/08/17 12:04:53;;;;;;;3.65;0.80;;;24.90;1.00;;;;;;5039140;28;20447;-71
2023/08/17 12:07:19;;;;;;;3.30;0.68;;;24.90;1.00;;;;;;5034549;28;20973;-71
2023/08/17 12:09:48;;;;;;;3.90;0.70;;;25.10;1.00;;;;;;5040911;28;20409;-71
2023/08/17 12:12:18;;;;;;;2.83;0.60;;;25.20;1.00;;;;;;5043661;28;20461;-71
2023/08/17 12:14:46;;;;;;;2.88;0.60;;;25.10;1.00;;;;;;5041836;28;20408;-72
2023/08/17 12:17:18;;;;;;;4.63;0.90;;;25.00;1.00;;;;;;5042716;28;20400;-71
2023/08/17 12:19:44;;;;;;;3.10;0.80;;;25.20;1.00;;;;;;5043917;28;21135;-72
2023/08/17 12:22:12;;;;;;;5.28;0.82;;;25.70;1.00;;;;;;5042261;28;20764;-71
2023/08/17 12:24:38;;;;;;;2.72;0.82;;;26.00;1.00;;;;;;5037881;28;20445;-71
2023/08/17 12:27:05;;;;;;;3.35;0.55;;;26.20;1.00;;;;;;5034209;28;20407;-72
2023/08/17 12:29:31;;;;;;;4.97;0.98;;;26.50;1.00;;;;;;5030083;28;20472;-72
2023/08/17 12:31:57;;;;;;;4.60;0.70;;;26.80;99.90;;;;;;5029976;28;20901;-71
2023/08/17 12:34:23;;;;;;;3.00;0.63;;;27.00;99.90;;;;;;5035735;28;20975;-72
2023/08/17 12:36:49;;;;;;;4.03;0.73;;;27.10;99.90;;;;;;5034029;28;20510;-72
2023/08/17 12:39:15;;;;;;;3.53;0.52;;;26.90;99.90;;;;;;5034551;28;20405;-72
2023/08/17 12:41:41;;;;;;;8.75;0.95;;;26.60;99.90;;;;;;5031326;28;21490;-72
2023/08/17 12:44:09;;;;;;;7.60;1.20;;;26.40;99.90;;;;;;5043890;28;20446;-71
2023/08/17 12:46:35;;;;;;;11.13;1.45;;;26.20;99.90;;;;;;5025468;28;20795;-72
2023/08/17 12:49:00;;;;;;;5.00;0.70;;;25.90;99.90;;;;;;5035109;28;20456;-71
2023/08/17 12:51:26;;;;;;;4.00;0.98;;;25.70;99.90;;;;;;5033195;28;20407;-71